Timeline UpdatesTrip UpdatesNews PostsPvt PostsTravel TipsAdmin PostsConv PostsFollowed PostsChat RequestsBlog PostsPNR Posts

Disclaimer
Search
 
 
Fri Apr 18, 2014 21:13:15 ISTHomeTrainsΣChainsAtlasPNRForumGalleryNewsFAQTripsMembersLoginFeedback
No Recent News for this Train
Other Trains in the News **new
Latest...
.
Sun Feb 23, 2014 (02:12AM)
⇐ Return Journey: Train# 15483

14084⇒15484/Sikkim Mahananda Express

Jan 14 2014 (8:06PM)
Change Departure Station:
Change Arrival Station:
Post a Train Travel TipPost a Train Travel Tip **new
Post a Comment/Question/Picture/VideoPost a Comment/Question/Picture/Video
Pantry/Catering
✓ Pantry Car Avbl
✓ Catering Avbl
RSA - Rake Sharing
Rake/Coach Composition
LOCO-SLR-GEN-GEN-S1-S2-S3-S4-S5-S6-S7- S8-S9-S10-S11-S12-S13- PC-B2-AB1-B1-GEN-GEN-GEN-SLR. By Atharvayadav Entry# 714350
Loco
DLI - PNBE: Mughalsarai shed WAP-4 or Ghaziabad shed WAP-4/7 PNBE...
Read more...
- APDJ: WDP4/4B of Siliguri shed. **Spotted with MGS WAP-4 22739 at MGS on 30/03/2013**
News    PNR    Forum    Time-Table    Availability    Fare Chart    Map    Arr/Dep History    Trips    Gallery    ΣChains    X/O    Timeline    
Travel Time: 6h 16m    11 halts    Distance: 316 km    Avg Speed: 50 km/hr
Type: Mail/Express
Zone: NFR/Northeast Frontier
Departs @ 06:40 (Avg 1h 13m late)
Platform# 9
SMTWTFS
Old Delhi Junction/DLI 
Arrives @ 12:56 (Avg 1h 43m late)
Platform# 3
SMTWTFS
Bharthana/BNT 

11 halts. 45 intermediate Stations between Old Delhi Junction and Bharthana

Show ALL intermediate Stations  Show Old Time-Table

#CodeStation NameX/OArrivesAvgDepartsAvgHaltPFDay#KmSpeedElevZoneAddress
1DLI»Old Delhi Junction (16)»  -06:40+1:13910.024219mNRNear Chandni Chowk Metro Station, Delhi NCT
2DSAShahdara Junction (4)  06:56+1:1806:58+1:182m216.329212mNRCircular Rd, Delhi NCT
3GZBGhaziabad Junction (6)X  07:26+1:1707:28+1:202m2119.980217mNRGhaziabad, Uttar Pradesh
4CHLChola (3)  08:04+1:3208:06+1:382m--168.058204mNCRTahsil Bulandshahar, Uttar Pradesh
5KRJKhurja Junction (4)  08:21+1:4308:23+1:362m2182.671199mNCRBulandshahr, Uttar Pradesh
6ALJNAligarh Junction (4)X  09:00+1:3509:05+1:355m11126.182192mNCRAligarh, Uttar Pradesh
7HRSHathras Junction (3)X  09:27+1:3309:32+1:315m11156.286183mNCRMahamaya Nagar(05722-242803), Uttar Pradesh
8JLSJalesar Road (1)X  09:46+1:3309:48+1:362m11176.323172mNCRMDR 106W, Uttar Pradesh
9TDLTundla Junction (4)  11:00+1:2311:08+1:248m31204.245167mNCRDistt.Firozabad, Uttar Pradesh
10FZDFirozabad (4)  11:30+1:2411:32+1:282m21220.857164mNCRFirozabad, Uttar Pradesh
11SKBShikohabad Junction (4)X  11:53+1:2611:55+1:282m21240.677166mNCRDistrict Firozabad, Uttar Pradesh
12ETWEtawah (5)  12:38+1:3812:40+1:422m31296.075154mNCRDistt. Etawah, Uttar Pradesh
13BNT•Bharthana (3)•  12:56+1:4312:58+1:432m31315.969147mNCRBharthana, Uttar Pradesh
14ULDAchalda (3)  13:15+1:4413:17+1:452m31335.463147mNCRDist. Auraiya(05688-1072), Uttar Pradesh
15PHDPhaphund (4)X  13:33+1:4513:35+1:462m31352.270146mNCRdist. Auraiya, Uttar Pradesh
16JJKJhinjhak (3)  13:52+1:4713:54+1:472m31372.067140mNCRAuraiya, Uttar Pradesh
17RURARura (4)  14:11+1:5014:13+1:512m31391.145137mNCRJhinjhak, Uttar Pradesh
18CNBKanpur Central (10)X  15:12+2:1415:20+2:228m51435.474128mNCRKanpur, Uttar Pradesh
19FTPFatehpur (3)  16:23+2:2116:25+2:252m21513.078120mNCRFatehpur, Uttar Pradesh
20ALDAllahabad Junction (10)X  17:55+2:4918:05+2:5110m41629.739100mNCRAllahabad 211003, Uttar Pradesh
21NYNNaini Junction (4)  18:16+2:5918:18+3:032m11636.88698mNCRAllahabad, Uttar Pradesh
22BDLVindhyachal (3)X  19:10+3:5119:12+3:532m21711.62188mNCRMirzapur, Uttar Pradesh
23MZPMirzapur (3)X  19:33+3:4919:35+4:002m21718.94588mNCRMirzapur, Uttar Pradesh
24MGSMughal Sarai Junction (8)X  21:00+4:4521:15+4:4715m11782.16683mECRMughalsarai 232101, Uttar Pradesh
25BXRBuxar (3)  22:41+4:3622:43+4:392m--1876.09167mECRBuxar, Bihar
26ARAAra Junction (3)X  23:28+4:3823:30+4:452m--1944.58863mECRarrah( 06182-233411), Bihar
27DNRDanapur (5)  23:57+4:5123:59+4:542m--1984.11658mECRKhagaul, Bihar
28PNBEPatna Junction (10)00:35+4:5601:00+4:5725m22993.57757mECRPatna 800001, Bihar
29BKPBakhtiyarpur Junction (5)X  01:35+5:0901:37+5:092m--21038.65951mECRPatna, Bihar
30MKAMokama Junction (3)X  02:22+5:0402:24+5:212m--21082.71448mECRPatna, Bihar
31BJUBarauni Junction (9)  03:55+4:5404:00+5:025m121103.437 ECRBegusarai, Bihar
32BGSBegu Sarai (2)X  04:22+4:4304:24+4:442m--21116.836 ECR06243-222853, Bihar
33LKNLakhminia  04:54+4:4104:56+4:412m--21134.64845mECRBegusarai, Bihar
34SKJSahibpur Kamal Junction (2)  05:08+4:3805:10+4:392m--21144.32941mECRShahpur Kamal, Bihar
35KGGKhagaria Junction (3)XO  05:36+4:2505:38+4:342m--21156.76643mECR06244-223596, Bihar
36MNEMansi Junction (3)O  05:46+4:3105:48+4:312m--21165.54243mECR06244-233234, Bihar
37MSKMahes Khunt  06:03+4:2406:05+4:302m--21175.93237mECRMaheshkhunt, Bihar
38PSRPasraha  06:28+4:2506:30+4:362m--21188.32541mECRPasraha, Bihar
39NNRNarayanpurO  06:58+4:2707:00+4:332m--21199.91639mECRNarayanpur, Bihar
40THBThana Bihpur JunctionX  07:28+4:1507:30+4:152m--21207.52839mECRThana Bihpur, Bihar
41NNANaugachiaX  08:04+4:1008:06+4:102m--21223.43737mECRBhagalpur, Bihar
42KUEKurselaX  08:36+4:0608:38+4:072m--21241.96031mECRNH 31, Bihar
43CRRKaragola Road  08:55+4:0208:57+4:032m--21258.94636mECRLachhmipur, Bihar
44SMOSemapurX09:11+4:0209:13+4:102m--21269.74135mECRKatihar, Bihar
45KIRKatihar Junction (7)  09:30+4:2609:50+4:3920m621281.25335mNFR854105., Bihar
46LAVLabha  10:16+4:1710:18+4:182m--21304.05529mNFRNational Highway 81, Bihar
47AZRAzamnagar Road (2)X  10:41+4:1810:43+4:212m--21325.16234mNFRAzamnagar, Bihar
48BOEBarsoi Junction (3)  10:56+4:1810:58+4:242m--21338.47637mNFRdist- katihar, Bihar
49DLKDalkhola (3)  11:21+4:1311:23+4:132m--21367.56844mNFRDalkola, West Bengal
50KNEKishanGanj (3)  11:48+4:1711:50+4:172m121396.07352mNFRKishanganj, Bihar
51AUBAluabari Road (2)X  12:15+4:2112:17+4:282m221426.6470mNFRDist - uttar Dinajpur, West Bengal
52NJPNew Jalpaiguri Junction (8)X  13:30+4:2213:45+4:1915m121483.322114mNFRCity-Siliguri . Dist-Jalpaiguri, West Bengal
53SGUJSiliguri Junction (5)  14:05+4:2114:10+4:265m421490.651120mNFRDist-Darjeeling Siliguri-734001, West Bengal
54NMZNew Mal Junction (3)X  15:06+4:2515:11+4:315m--21538.468161mNFRDist - Jalpaiguri, West Bengal
55BNVBinnaguri (3)  15:50+4:2915:52+4:352m--21582.750132mNFRBinnaguri, West Bengal
56DLODalgaon (3)  16:03+4:2916:05+4:352m--21591.943120mNFRPh:03563-266013, West Bengal
57HSAHasimara (3)X  16:40+4:3716:42+4:442m--21617.027123mNFRDist - jalpaiguri, West Bengal
58APDJAlipur Duar Junction (3)  18:00+4:31---21651.8-53mNFR03564-255091, West Bengal
Scroll to Top
Scroll to Bottom